createdAt,value
2022-08-31T00:02:42.155Z,28.80
2022-08-31T00:05:13.222Z,28.90
2022-08-31T00:07:44.120Z,28.50
2022-08-31T00:10:18.786Z,29.00
2022-08-31T00:12:51.011Z,28.90
2022-08-31T00:15:30.154Z,29.10
2022-08-31T00:18:01.380Z,29.10
2022-08-31T00:20:34.758Z,28.80
2022-08-31T00:23:10.844Z,28.80
2022-08-31T00:25:45.454Z,28.70
2022-08-31T00:28:18.110Z,28.70
2022-08-31T00:30:50.123Z,28.60
2022-08-31T00:33:21.293Z,28.80
2022-08-31T00:35:52.233Z,28.80
2022-08-31T00:38:25.596Z,28.60
2022-08-31T00:40:56.566Z,29.30
2022-08-31T00:43:54.749Z,28.70
2022-08-31T00:46:31.221Z,28.70
2022-08-31T00:49:09.637Z,28.20
2022-08-31T00:51:48.077Z,27.60
2022-08-31T00:54:28.258Z,26.80
2022-08-31T00:56:59.912Z,25.40
2022-08-31T00:59:30.964Z,24.80
2022-08-31T01:02:02.170Z,24.50
2022-08-31T01:04:34.626Z,24.20
2022-08-31T01:07:08.251Z,23.70
2022-08-31T01:09:45.159Z,23.50
2022-08-31T01:12:29.130Z,23.90
2022-08-31T01:15:04.429Z,24.30
2022-08-31T01:17:36.897Z,24.60
2022-08-31T01:20:35.017Z,24.80
2022-08-31T01:23:18.781Z,25.40
2022-08-31T01:25:51.378Z,25.40
2022-08-31T01:28:22.494Z,25.40
2022-08-31T01:31:08.691Z,25.80
2022-08-31T01:33:39.930Z,25.90
2022-08-31T01:36:15.835Z,25.80
2022-08-31T01:38:53.105Z,25.90
2022-08-31T01:41:24.279Z,26.10
2022-08-31T01:43:55.540Z,25.90
2022-08-31T01:46:27.040Z,25.90
2022-08-31T01:48:57.982Z,25.80
2022-08-31T01:51:28.945Z,25.70
2022-08-31T01:54:00.205Z,26.00
2022-08-31T01:56:39.777Z,25.10
2022-08-31T01:59:13.325Z,25.60
2022-08-31T02:01:48.842Z,25.60
2022-08-31T02:04:23.576Z,25.50
2022-08-31T02:06:57.531Z,25.10
2022-08-31T02:09:30.050Z,25.00
2022-08-31T02:12:00.947Z,25.20
2022-08-31T02:14:31.863Z,24.70
2022-08-31T02:17:03.096Z,24.70
2022-08-31T02:19:34.189Z,24.80
2022-08-31T02:22:05.123Z,24.60
2022-08-31T02:24:36.189Z,24.90
2022-08-31T02:27:07.328Z,24.90
2022-08-31T02:29:38.332Z,25.00
2022-08-31T02:32:09.332Z,25.50
2022-08-31T02:34:51.091Z,25.50
2022-08-31T02:37:21.995Z,25.30
2022-08-31T02:39:53.641Z,25.50
2022-08-31T02:42:24.573Z,25.40
2022-08-31T02:44:55.531Z,25.70
2022-08-31T02:47:27.458Z,25.30
2022-08-31T02:49:58.676Z,25.50
2022-08-31T02:52:29.537Z,25.00
2022-08-31T02:55:00.519Z,25.00
2022-08-31T02:57:31.655Z,24.40
2022-08-31T03:00:03.217Z,24.20
2022-08-31T03:02:34.247Z,24.60
2022-08-31T03:05:08.201Z,24.80
2022-08-31T03:07:40.350Z,25.00
2022-08-31T03:10:14.119Z,25.20
2022-08-31T03:12:45.003Z,25.30
2022-08-31T03:15:18.521Z,25.20
2022-08-31T03:17:49.550Z,25.20
2022-08-31T03:20:22.936Z,25.20
2022-08-31T03:22:54.506Z,25.20
2022-08-31T03:25:25.478Z,25.00
2022-08-31T03:27:56.841Z,25.20
2022-08-31T03:30:29.896Z,25.30
2022-08-31T03:33:03.679Z,25.30
2022-08-31T03:35:35.163Z,25.30
2022-08-31T03:38:06.145Z,25.40
2022-08-31T03:40:37.246Z,25.40
2022-08-31T03:43:11.679Z,25.30
2022-08-31T03:45:43.731Z,25.30
2022-08-31T03:48:14.740Z,25.10
2022-08-31T03:50:46.122Z,24.80
2022-08-31T03:53:22.383Z,24.40
2022-08-31T03:56:01.878Z,24.30
2022-08-31T03:58:33.080Z,24.70
2022-08-31T04:01:04.718Z,24.60
2022-08-31T04:03:36.695Z,25.00
2022-08-31T04:06:13.040Z,25.30
2022-08-31T04:08:43.935Z,25.00
2022-08-31T04:11:17.974Z,24.90
2022-08-31T04:13:56.567Z,25.30
2022-08-31T04:16:27.536Z,25.40
2022-08-31T04:18:58.723Z,25.30
2022-08-31T04:21:31.201Z,25.60
2022-08-31T04:24:02.817Z,25.40
2022-08-31T04:26:37.537Z,25.70
2022-08-31T04:29:13.067Z,25.30
2022-08-31T04:31:44.746Z,25.50
2022-08-31T04:34:15.685Z,25.20
2022-08-31T04:36:46.943Z,25.10
2022-08-31T04:39:18.466Z,24.90
2022-08-31T04:41:50.499Z,24.70
2022-08-31T04:44:21.966Z,24.90
2022-08-31T04:46:53.090Z,25.40
2022-08-31T04:49:23.985Z,25.60
2022-08-31T04:51:54.998Z,25.20
2022-08-31T04:54:25.961Z,25.30
2022-08-31T04:56:59.134Z,25.30
2022-08-31T04:59:30.130Z,25.50
2022-08-31T05:02:01.205Z,25.00
2022-08-31T05:04:32.315Z,25.10
2022-08-31T05:07:03.339Z,24.90
2022-08-31T05:09:34.558Z,24.60
2022-08-31T05:12:05.666Z,24.80
2022-08-31T05:14:37.165Z,25.00
2022-08-31T05:17:13.765Z,25.20
2022-08-31T05:19:46.324Z,25.20
2022-08-31T05:22:17.338Z,25.40
2022-08-31T05:24:48.343Z,25.40
2022-08-31T05:27:19.271Z,24.80
2022-08-31T05:29:50.688Z,24.70
2022-08-31T05:32:21.563Z,25.10
2022-08-31T05:34:53.474Z,25.20
2022-08-31T05:37:24.511Z,25.30
2022-08-31T05:39:55.522Z,25.10
2022-08-31T05:42:26.486Z,25.40
2022-08-31T05:44:57.623Z,25.10
2022-08-31T05:47:28.849Z,25.10
2022-08-31T05:49:59.777Z,25.20
2022-08-31T05:52:30.726Z,25.10
2022-08-31T05:55:02.877Z,25.00
2022-08-31T05:57:33.788Z,25.10
2022-08-31T06:00:06.683Z,25.10
2022-08-31T06:02:40.123Z,25.40
2022-08-31T06:05:11.122Z,25.40
2022-08-31T06:07:42.217Z,25.20
2022-08-31T06:10:15.143Z,25.30
2022-08-31T06:12:47.418Z,25.10
2022-08-31T06:15:18.448Z,25.30
2022-08-31T06:17:49.396Z,25.20
2022-08-31T06:20:20.382Z,25.40
2022-08-31T06:22:51.926Z,25.50
2022-08-31T06:25:24.820Z,25.60
2022-08-31T06:27:56.619Z,25.70
2022-08-31T06:30:27.754Z,25.70
2022-08-31T06:32:59.049Z,25.80
2022-08-31T06:35:30.046Z,25.90
2022-08-31T06:38:00.934Z,26.10
2022-08-31T06:40:31.905Z,26.00
2022-08-31T06:43:02.888Z,26.00
2022-08-31T06:45:33.763Z,25.40
2022-08-31T06:48:05.031Z,25.50
2022-08-31T06:50:38.977Z,25.60
2022-08-31T06:53:10.046Z,25.60
2022-08-31T06:55:40.924Z,25.80
2022-08-31T06:58:11.866Z,25.30
2022-08-31T07:00:42.931Z,25.70
2022-08-31T07:03:23.339Z,25.80
2022-08-31T07:05:54.504Z,25.70
2022-08-31T07:08:25.604Z,26.10
2022-08-31T07:10:56.537Z,25.70
2022-08-31T07:13:27.518Z,26.00
2022-08-31T07:16:08.173Z,25.90
2022-08-31T07:18:40.415Z,25.80
2022-08-31T07:21:30.833Z,25.80
2022-08-31T07:24:06.155Z,25.50
2022-08-31T07:26:47.918Z,25.60
2022-08-31T07:29:21.169Z,25.70
2022-08-31T07:31:52.428Z,25.90
2022-08-31T07:34:30.677Z,25.70
2022-08-31T07:37:21.696Z,25.90
2022-08-31T07:40:11.190Z,25.60
2022-08-31T07:42:45.024Z,25.80
2022-08-31T07:45:26.454Z,25.80
2022-08-31T07:48:01.141Z,25.90
2022-08-31T07:50:32.256Z,25.50
2022-08-31T07:53:03.322Z,25.80
2022-08-31T07:55:36.178Z,25.90
2022-08-31T07:58:12.908Z,26.00
2022-08-31T08:00:47.702Z,25.90
2022-08-31T08:03:18.792Z,25.90
2022-08-31T08:05:50.201Z,25.70
2022-08-31T08:08:22.974Z,25.30
2022-08-31T08:10:53.887Z,25.20
2022-08-31T08:13:24.941Z,25.40
2022-08-31T08:15:56.331Z,25.60
2022-08-31T08:18:29.264Z,25.50
2022-08-31T08:21:00.178Z,25.50
2022-08-31T08:23:31.363Z,25.70
2022-08-31T08:26:09.731Z,25.80
2022-08-31T08:28:52.428Z,25.90
2022-08-31T08:31:24.000Z,25.60
2022-08-31T08:33:55.313Z,25.20
2022-08-31T08:36:26.731Z,24.80
2022-08-31T08:38:57.664Z,25.40
2022-08-31T08:41:32.365Z,25.60
2022-08-31T08:44:08.188Z,25.70
2022-08-31T08:46:51.477Z,25.90
2022-08-31T08:49:35.308Z,25.30
2022-08-31T08:52:31.597Z,25.50
2022-08-31T08:55:09.122Z,25.50
2022-08-31T08:57:43.423Z,25.40
2022-08-31T09:00:23.093Z,25.80
2022-08-31T09:03:01.220Z,25.90
2022-08-31T09:06:02.042Z,26.00
2022-08-31T09:09:08.428Z,25.90
2022-08-31T09:12:14.058Z,25.80
2022-08-31T09:15:28.400Z,25.90
2022-08-31T09:18:44.226Z,25.40
2022-08-31T09:21:28.926Z,25.60
2022-08-31T09:24:07.634Z,25.60
2022-08-31T09:27:17.323Z,25.60
2022-08-31T09:30:01.162Z,26.00
2022-08-31T09:32:36.074Z,26.00
2022-08-31T09:35:30.098Z,26.20
2022-08-31T09:38:09.925Z,26.20
2022-08-31T09:40:49.868Z,26.60
2022-08-31T09:43:25.311Z,26.60
2022-08-31T09:46:11.830Z,26.80
2022-08-31T09:48:45.703Z,26.60
2022-08-31T09:51:33.794Z,26.50
2022-08-31T09:54:46.921Z,26.40
2022-08-31T09:57:18.335Z,26.10
2022-08-31T09:59:51.674Z,26.60
2022-08-31T10:02:23.082Z,26.40
2022-08-31T10:05:06.582Z,26.30
2022-08-31T10:08:04.471Z,26.50
2022-08-31T10:10:39.280Z,27.00
2022-08-31T10:13:34.352Z,26.90
2022-08-31T10:16:48.022Z,26.50
2022-08-31T10:19:32.714Z,26.10
2022-08-31T10:22:23.137Z,26.20
2022-08-31T10:25:23.017Z,26.50
2022-08-31T10:28:31.752Z,26.80
2022-08-31T10:31:21.185Z,26.50
2022-08-31T10:34:24.302Z,26.60
2022-08-31T10:37:06.448Z,26.40
2022-08-31T10:39:47.724Z,26.70
2022-08-31T10:42:35.973Z,27.10
2022-08-31T10:45:23.397Z,26.90
2022-08-31T10:47:59.204Z,26.50
2022-08-31T10:50:45.313Z,26.50
2022-08-31T10:53:42.250Z,26.50
2022-08-31T10:56:31.406Z,26.70
2022-08-31T10:59:57.209Z,26.90
2022-08-31T11:03:04.783Z,26.50
2022-08-31T11:06:13.961Z,26.80
2022-08-31T11:09:03.914Z,26.90
2022-08-31T11:11:44.982Z,26.30
2022-08-31T11:15:09.906Z,26.30
2022-08-31T11:18:36.151Z,27.20
2022-08-31T11:21:20.297Z,27.10
2022-08-31T11:24:06.361Z,27.10
2022-08-31T11:27:26.449Z,27.20
2022-08-31T11:30:08.182Z,26.50
2022-08-31T11:32:52.038Z,26.30
2022-08-31T11:36:06.385Z,26.00
2022-08-31T11:38:52.775Z,26.50
2022-08-31T11:41:48.963Z,26.80
2022-08-31T11:44:36.488Z,26.70
2022-08-31T11:47:26.899Z,26.50
2022-08-31T11:50:06.149Z,26.90
2022-08-31T11:52:48.457Z,26.60
2022-08-31T11:55:30.494Z,26.50
2022-08-31T11:58:11.416Z,26.50
2022-08-31T12:00:58.469Z,26.30
2022-08-31T12:04:03.340Z,26.40
2022-08-31T12:06:37.336Z,26.30
2022-08-31T12:09:34.439Z,26.30
2022-08-31T12:12:11.393Z,26.30
2022-08-31T12:14:58.428Z,26.10
2022-08-31T12:17:56.937Z,26.00
2022-08-31T12:21:36.661Z,26.40
2022-08-31T12:24:49.313Z,26.40
2022-08-31T12:27:30.274Z,26.50
2022-08-31T12:30:20.943Z,26.50
2022-08-31T12:33:08.946Z,26.80
2022-08-31T12:35:41.385Z,27.20
2022-08-31T12:38:26.746Z,27.10
2022-08-31T12:41:00.681Z,27.20
2022-08-31T12:44:00.743Z,27.50
2022-08-31T12:46:59.270Z,28.10
2022-08-31T12:49:50.848Z,27.50
2022-08-31T12:52:46.061Z,27.50
2022-08-31T12:55:37.599Z,27.40
2022-08-31T12:58:53.265Z,28.20
2022-08-31T13:01:26.975Z,28.40
2022-08-31T13:04:06.617Z,27.80
2022-08-31T13:06:40.832Z,28.30
2022-08-31T13:09:35.754Z,28.30
2022-08-31T13:12:06.963Z,28.40
2022-08-31T13:14:46.521Z,28.90
2022-08-31T13:17:22.160Z,29.00
2022-08-31T13:19:57.470Z,29.00
2022-08-31T13:22:41.582Z,28.90
2022-08-31T13:25:33.499Z,29.40
2022-08-31T13:28:14.458Z,30.40
2022-08-31T13:31:00.431Z,30.80
2022-08-31T13:33:43.008Z,31.00
2022-08-31T13:36:37.128Z,30.20
2022-08-31T13:39:16.837Z,30.00
2022-08-31T13:42:06.014Z,29.90
2022-08-31T13:44:44.143Z,30.30
2022-08-31T13:47:31.982Z,30.30
2022-08-31T13:50:21.743Z,31.00
2022-08-31T13:53:25.530Z,31.30
2022-08-31T13:55:50.118Z,31.30
2022-08-31T13:58:32.561Z,30.80
2022-08-31T14:01:25.230Z,31.50
2022-08-31T14:04:00.067Z,31.70
2022-08-31T14:06:38.956Z,30.90
2022-08-31T14:09:17.792Z,31.80
2022-08-31T14:11:53.539Z,31.40
2022-08-31T14:14:29.883Z,31.20
2022-08-31T14:17:03.562Z,31.70
2022-08-31T14:19:39.931Z,32.00
2022-08-31T14:22:32.735Z,32.30
2022-08-31T14:25:03.891Z,31.50
2022-08-31T14:27:58.399Z,32.00
2022-08-31T14:30:36.727Z,31.80
2022-08-31T14:33:19.746Z,32.20
2022-08-31T14:35:55.681Z,31.50
2022-08-31T14:38:30.371Z,31.90
2022-08-31T14:41:01.505Z,31.50
2022-08-31T14:43:32.588Z,32.10
2022-08-31T14:46:03.870Z,32.00
2022-08-31T14:48:44.192Z,31.80
2022-08-31T14:51:15.309Z,31.80
2022-08-31T14:53:49.470Z,31.20
2022-08-31T14:56:22.908Z,31.50
2022-08-31T14:58:55.494Z,30.80
2022-08-31T15:01:29.223Z,30.40
2022-08-31T15:04:07.121Z,31.20
2022-08-31T15:06:38.683Z,31.20
2022-08-31T15:09:09.784Z,30.80
2022-08-31T15:11:41.253Z,30.80
2022-08-31T15:14:12.620Z,30.90
2022-08-31T15:16:47.397Z,30.50
2022-08-31T15:19:19.215Z,29.90
2022-08-31T15:22:03.253Z,29.70
2022-08-31T15:24:38.940Z,28.90
2022-08-31T15:27:14.484Z,28.70
2022-08-31T15:29:54.070Z,28.30
2022-08-31T15:32:25.437Z,28.40
2022-08-31T15:34:59.286Z,27.70
2022-08-31T15:37:31.850Z,27.50
2022-08-31T15:40:05.520Z,27.90
2022-08-31T15:42:40.296Z,27.80
2022-08-31T15:45:11.430Z,28.30
2022-08-31T15:48:00.858Z,28.40
2022-08-31T15:50:33.464Z,28.30
2022-08-31T15:53:09.867Z,27.90
2022-08-31T15:55:49.037Z,27.80
2022-08-31T15:58:24.721Z,27.70
2022-08-31T16:00:56.200Z,28.70
2022-08-31T16:03:32.154Z,28.40
2022-08-31T16:06:06.368Z,28.90
2022-08-31T16:08:44.234Z,29.10
2022-08-31T16:11:15.345Z,28.80
2022-08-31T16:13:59.929Z,29.00
2022-08-31T16:16:35.987Z,29.10
2022-08-31T16:19:10.049Z,28.60
2022-08-31T16:21:50.465Z,28.50
2022-08-31T16:24:25.133Z,28.00
2022-08-31T16:26:59.147Z,27.80
2022-08-31T16:29:30.182Z,28.10
2022-08-31T16:32:02.593Z,28.30
2022-08-31T16:34:34.909Z,28.20
2022-08-31T16:37:07.794Z,27.90
2022-08-31T16:39:43.889Z,28.00
2022-08-31T16:42:17.715Z,27.70
2022-08-31T16:44:51.310Z,28.00
2022-08-31T16:47:22.354Z,27.20
2022-08-31T16:50:01.253Z,27.80
2022-08-31T16:52:35.582Z,28.30
2022-08-31T16:55:07.330Z,28.40
2022-08-31T16:57:39.099Z,27.80
2022-08-31T17:00:13.452Z,28.00
2022-08-31T17:02:44.364Z,28.30
2022-08-31T17:05:17.746Z,28.50
2022-08-31T17:07:49.154Z,28.40
2022-08-31T17:10:20.121Z,28.40
2022-08-31T17:12:55.650Z,28.40
2022-08-31T17:15:26.807Z,28.30
2022-08-31T17:17:57.907Z,28.10
2022-08-31T17:20:31.846Z,28.30
2022-08-31T17:23:02.972Z,28.60
2022-08-31T17:25:35.826Z,28.50
2022-08-31T17:28:07.917Z,27.80
2022-08-31T17:30:44.899Z,27.90
2022-08-31T17:33:15.871Z,28.00
2022-08-31T17:35:46.820Z,27.90
2022-08-31T17:38:18.424Z,28.20
2022-08-31T17:40:49.894Z,28.30
2022-08-31T17:43:22.104Z,28.30
2022-08-31T17:45:56.192Z,28.30
2022-08-31T17:48:27.128Z,28.30
2022-08-31T17:50:58.502Z,28.40
2022-08-31T17:53:29.626Z,28.30
2022-08-31T17:56:01.153Z,28.30
2022-08-31T17:58:32.249Z,28.20
2022-08-31T18:01:06.083Z,28.30
2022-08-31T18:03:37.229Z,28.40
2022-08-31T18:06:08.275Z,28.30
2022-08-31T18:08:40.706Z,28.10
2022-08-31T18:11:11.661Z,27.90
2022-08-31T18:13:44.087Z,28.10
2022-08-31T18:16:15.729Z,28.00
2022-08-31T18:18:50.424Z,28.00
2022-08-31T18:21:26.791Z,27.40
2022-08-31T18:24:00.093Z,26.80
2022-08-31T18:26:35.178Z,26.70
2022-08-31T18:29:16.071Z,26.80
2022-08-31T18:31:51.240Z,26.30
2022-08-31T18:34:24.550Z,26.40
2022-08-31T18:36:55.546Z,26.40
2022-08-31T18:39:51.705Z,27.00
2022-08-31T18:42:42.316Z,26.70
2022-08-31T18:45:19.136Z,26.40
2022-08-31T18:50:50.397Z,26.40
2022-08-31T18:53:28.953Z,26.60
2022-08-31T18:56:11.815Z,26.70
2022-08-31T18:58:43.681Z,26.40
2022-08-31T19:01:16.122Z,25.80
2022-08-31T19:03:47.898Z,25.90
2022-08-31T19:06:22.826Z,26.30
2022-08-31T19:08:53.827Z,26.00
2022-08-31T19:11:25.465Z,25.80
2022-08-31T19:13:56.544Z,25.60
2022-08-31T19:16:33.519Z,25.90
2022-08-31T19:19:04.794Z,25.90
2022-08-31T19:21:37.060Z,26.00
2022-08-31T19:24:12.919Z,26.00
2022-08-31T19:26:48.469Z,25.80
2022-08-31T19:29:25.693Z,25.60
2022-08-31T19:31:59.412Z,25.20
2022-08-31T19:34:34.855Z,25.30
2022-08-31T19:37:07.799Z,25.10
2022-08-31T19:39:43.050Z,25.00
2022-08-31T19:42:15.259Z,25.50
2022-08-31T19:44:55.830Z,24.80
2022-08-31T19:47:38.870Z,25.10
2022-08-31T19:50:15.122Z,24.80
2022-08-31T19:52:46.759Z,24.80
2022-08-31T19:55:20.778Z,24.70
2022-08-31T19:57:53.089Z,24.40
2022-08-31T20:00:24.273Z,24.70
2022-08-31T20:02:55.725Z,24.80
2022-08-31T20:05:27.137Z,24.40
2022-08-31T20:07:58.094Z,24.50
2022-08-31T20:10:30.174Z,24.40
2022-08-31T20:13:02.062Z,25.40
2022-08-31T20:15:39.148Z,25.60
2022-08-31T20:18:12.074Z,25.40
2022-08-31T20:20:45.783Z,24.80
2022-08-31T20:23:21.305Z,24.40
2022-08-31T20:25:53.296Z,24.40
2022-08-31T20:28:27.904Z,24.50
2022-08-31T20:31:07.011Z,24.20
2022-08-31T20:33:38.879Z,23.90
2022-08-31T20:36:20.959Z,23.80
2022-08-31T20:39:07.871Z,23.70
2022-08-31T20:41:49.163Z,23.50
2022-08-31T20:44:38.739Z,23.60
2022-08-31T20:47:29.220Z,23.80
2022-08-31T20:50:03.444Z,23.70
2022-08-31T20:52:35.366Z,23.50
2022-08-31T20:55:07.830Z,23.40
2022-08-31T20:57:41.750Z,23.10
2022-08-31T21:00:14.787Z,23.80
2022-08-31T21:02:47.077Z,23.90
2022-08-31T21:08:11.574Z,23.50
2022-08-31T21:10:42.600Z,24.10
2022-08-31T21:13:13.620Z,24.00
2022-08-31T21:15:46.952Z,23.90
2022-08-31T21:18:18.111Z,23.80
2022-08-31T21:20:51.564Z,23.50
2022-08-31T21:23:22.441Z,23.20
2022-08-31T21:25:55.180Z,23.40
2022-08-31T21:28:29.653Z,23.80
2022-08-31T21:31:28.523Z,23.50
2022-08-31T21:34:02.507Z,23.20
2022-08-31T21:36:34.135Z,23.00
2022-08-31T21:39:10.152Z,23.20
2022-08-31T21:41:43.074Z,23.20
2022-08-31T21:44:18.149Z,23.30
2022-08-31T21:46:50.804Z,23.20
2022-08-31T21:49:22.495Z,23.20
2022-08-31T21:51:57.233Z,23.00
2022-08-31T21:54:29.259Z,22.90
2022-08-31T21:57:03.106Z,22.70
2022-08-31T21:59:36.163Z,23.00
2022-08-31T22:02:11.483Z,23.30
2022-08-31T22:04:44.274Z,23.40
2022-08-31T22:07:15.399Z,23.20
2022-08-31T22:09:47.002Z,23.20
2022-08-31T22:12:18.231Z,22.80
2022-08-31T22:14:50.651Z,22.90
2022-08-31T22:17:36.947Z,23.00
2022-08-31T22:20:17.526Z,22.80
2022-08-31T22:22:49.683Z,22.50
2022-08-31T22:25:20.569Z,23.00
2022-08-31T22:27:51.486Z,22.70
2022-08-31T22:30:24.069Z,22.60
2022-08-31T22:32:55.141Z,22.50
2022-08-31T22:35:26.129Z,22.40
2022-08-31T22:37:57.097Z,22.40
2022-08-31T22:40:28.706Z,22.30
2022-08-31T22:42:59.748Z,22.70
2022-08-31T22:45:48.729Z,22.50
2022-08-31T22:48:19.966Z,22.60
2022-08-31T22:50:51.038Z,22.90
2022-08-31T22:53:21.958Z,23.00
2022-08-31T22:55:53.062Z,22.90
2022-08-31T22:58:24.028Z,22.60
2022-08-31T23:00:55.059Z,22.40
2022-08-31T23:03:27.180Z,22.20
2022-08-31T23:05:58.123Z,22.30
2022-08-31T23:08:29.416Z,22.20
2022-08-31T23:11:01.014Z,22.30
2022-08-31T23:13:50.480Z,22.60
2022-08-31T23:16:29.644Z,22.20
2022-08-31T23:19:12.342Z,22.30
2022-08-31T23:21:52.952Z,22.20
2022-08-31T23:24:31.894Z,22.00
2022-08-31T23:27:05.097Z,22.30
2022-08-31T23:29:47.096Z,22.00
2022-08-31T23:32:21.461Z,22.40
2022-08-31T23:34:52.587Z,22.10
2022-08-31T23:37:25.883Z,22.00
2022-08-31T23:39:59.439Z,22.10
2022-08-31T23:42:30.448Z,22.10
2022-08-31T23:45:02.143Z,21.90
2022-08-31T23:47:33.260Z,22.20
2022-08-31T23:50:08.071Z,21.90
2022-08-31T23:52:41.745Z,22.10
2022-08-31T23:55:12.904Z,21.80
2022-08-31T23:57:44.465Z,21.80
